Time;durP1;ratioP1;P1;durP2;ratioP2;P2;SDS_P1;SDS_P2;PMS_P1;PMS_P2;Temp;Humidity;BMP_temperature;BMP_pressure;BME280_temperature;BME280_humidity;BME280_pressure;Samples;Min_cycle;Max_cycle;Signal;HPM_P1;HPM_P2
2022/08/03 00:01:41;;;;;;;0.30;0.30;;;16.90;99.90;;;;;;5004916;28;20029;-78
2022/08/03 00:04:08;;;;;;;3.72;1.55;;;16.70;99.90;;;;;;5004181;28;20025;-86
2022/08/03 00:06:33;;;;;;;0.75;0.75;;;16.70;99.90;;;;;;4984898;28;20019;-79
2022/08/03 00:08:59;;;;;;;0.70;0.43;;;16.60;99.90;;;;;;5001338;28;20093;-78
2022/08/03 00:11:25;;;;;;;0.10;0.10;;;16.60;99.90;;;;;;4980119;28;20030;-81
2022/08/03 00:13:51;;;;;;;0.52;0.47;;;;;;;;;;4997060;28;20427;-79
2022/08/03 00:16:18;;;;;;;1.30;0.40;;;;;;;;;;4986033;28;20113;-77
2022/08/03 00:18:44;;;;;;;0.50;0.30;;;;;;;;;;4987156;28;20023;-82
2022/08/03 00:21:10;;;;;;;0.30;0.30;;;16.50;99.90;;;;;;5003717;28;20038;-85
2022/08/03 00:23:36;;;;;;;0.70;0.70;;;16.40;99.90;;;;;;5002652;28;20026;-78
2022/08/03 00:26:02;;;;;;;0.45;0.30;;;16.40;99.90;;;;;;4985098;28;20460;-78
2022/08/03 00:28:28;;;;;;;0.65;0.65;;;16.40;99.90;;;;;;5002540;28;20045;-84
2022/08/03 00:30:54;;;;;;;0.40;0.40;;;16.40;99.90;;;;;;5004507;28;20081;-86
2022/08/03 00:33:20;;;;;;;0.43;0.43;;;;;;;;;;5004223;28;20049;-85
2022/08/03 00:35:46;;;;;;;0.43;0.43;;;;;;;;;;5003455;28;20046;-78
2022/08/03 00:38:12;;;;;;;0.20;0.20;;;;;;;;;;4986241;28;20230;-82
2022/08/03 00:40:38;;;;;;;0.20;0.20;;;16.10;99.90;;;;;;5004033;28;20022;-78
2022/08/03 00:43:05;;;;;;;1.65;0.25;;;16.00;99.90;;;;;;5004012;28;20014;-80
2022/08/03 00:45:36;;;;;;;3.20;0.70;;;15.90;99.90;;;;;;4984421;28;20026;-78
2022/08/03 00:48:03;;;;;;;0.20;0.20;;;15.90;99.90;;;;;;5004116;28;20014;-80
2022/08/03 00:50:33;;;;;;;0.40;0.40;;;15.90;99.90;;;;;;5003729;28;20097;-78
2022/08/03 00:52:59;;;;;;;3.10;0.45;;;;;;;;;;4986186;28;20054;-80
2022/08/03 00:55:26;;;;;;;0.55;0.50;;;15.80;99.90;;;;;;4984698;28;20042;-78
2022/08/03 00:57:52;;;;;;;0.30;0.30;;;15.70;99.90;;;;;;4986326;28;20093;-83
2022/08/03 01:00:21;;;;;;;0.45;0.45;;;15.70;99.90;;;;;;4986536;28;20271;-77
2022/08/03 01:02:47;;;;;;;5.22;1.40;;;15.70;99.90;;;;;;5002359;28;20514;-77
2022/08/03 01:05:13;;;;;;;0.52;0.52;;;15.70;99.90;;;;;;4994893;28;20038;-77
2022/08/03 01:08:04;;;;;;;0.80;0.73;;;15.70;99.90;;;;;;4977423;28;20027;-80
2022/08/03 01:10:42;;;;;;;0.40;0.40;;;15.80;99.90;;;;;;4994275;28;20026;-78
2022/08/03 01:13:20;;;;;;;0.35;0.28;;;15.70;99.90;;;;;;4994615;28;20050;-84
2022/08/03 01:15:58;;;;;;;8.10;1.25;;;15.60;99.90;;;;;;4995594;28;20038;-81
2022/08/03 01:18:40;;;;;;;0.38;0.30;;;15.60;99.90;;;;;;4994480;28;20407;-84
2022/08/03 01:21:25;;;;;;;0.55;0.50;;;15.60;99.90;;;;;;4977561;28;20084;-78
2022/08/03 01:23:55;;;;;;;1.98;0.50;;;15.70;99.90;;;;;;5001017;28;20030;-78
2022/08/03 01:26:31;;;;;;;0.40;0.40;;;15.80;99.90;;;;;;5007578;28;20033;-77
2022/08/03 01:29:18;;;;;;;0.47;0.47;;;15.70;99.90;;;;;;4981409;28;20025;-78
2022/08/03 01:31:51;;;;;;;3.13;1.38;;;15.60;99.90;;;;;;4998906;28;20027;-78
2022/08/03 01:34:19;;;;;;;0.43;0.43;;;15.50;99.90;;;;;;4999102;28;20541;-83
2022/08/03 01:36:52;;;;;;;0.45;0.45;;;15.40;99.90;;;;;;4980435;28;20054;-81
2022/08/03 01:39:20;;;;;;;0.30;0.30;;;15.40;99.90;;;;;;4981533;28;20113;-77
2022/08/03 01:41:58;;;;;;;0.20;0.20;;;15.40;99.90;;;;;;4998524;28;20022;-77
2022/08/03 01:44:28;;;;;;;1.70;1.55;;;15.50;99.90;;;;;;4997948;28;20026;-78
2022/08/03 01:46:59;;;;;;;0.38;0.38;;;15.40;99.90;;;;;;5002648;28;20038;-77
2022/08/03 01:49:27;;;;;;;0.60;0.60;;;15.40;99.90;;;;;;4989846;28;20022;-81
2022/08/03 01:51:53;;;;;;;1.85;0.47;;;;;;;;;;5001107;28;20030;-81
2022/08/03 01:54:21;;;;;;;1.10;0.40;;;15.40;99.90;;;;;;4997603;28;20029;-77
2022/08/03 01:56:50;;;;;;;0.28;0.28;;;15.40;99.90;;;;;;4984712;28;20049;-76
2022/08/03 01:59:17;;;;;;;0.30;0.30;;;15.40;99.90;;;;;;5005863;28;20026;-76
2022/08/03 02:01:44;;;;;;;1.02;1.02;;;15.40;99.90;;;;;;5002663;28;20046;-77
2022/08/03 02:04:13;;;;;;;0.50;0.50;;;15.40;99.90;;;;;;4982271;28;20443;-79
2022/08/03 02:06:40;;;;;;;0.20;0.20;;;15.40;99.90;;;;;;4998552;28;20023;-78
2022/08/03 02:09:07;;;;;;;0.45;0.22;;;15.30;99.90;;;;;;4997755;28;20265;-78
2022/08/03 02:11:34;;;;;;;0.60;0.60;;;15.30;99.90;;;;;;5000968;28;20045;-77
2022/08/03 02:14:04;;;;;;;0.40;0.40;;;15.30;99.90;;;;;;5003858;28;20487;-76
2022/08/03 02:16:31;;;;;;;0.63;0.50;;;15.30;99.90;;;;;;5002087;28;20041;-77
2022/08/03 02:18:59;;;;;;;0.73;0.73;;;15.20;99.90;;;;;;4996291;28;20018;-77
2022/08/03 02:21:28;;;;;;;0.73;0.30;;;15.20;99.90;;;;;;4996824;28;20034;-81
2022/08/03 02:23:54;;;;;;;0.40;0.40;;;15.10;99.90;;;;;;4978827;28;20022;-81
2022/08/03 02:26:23;;;;;;;0.70;0.70;;;15.10;99.90;;;;;;4996285;28;20034;-77
2022/08/03 02:28:52;;;;;;;0.52;0.52;;;15.00;99.90;;;;;;4978966;28;20081;-77
2022/08/03 02:31:23;;;;;;;0.50;0.50;;;14.90;99.90;;;;;;4978743;28;20076;-79
2022/08/03 02:33:56;;;;;;;0.38;0.38;;;14.80;99.90;;;;;;4977448;28;20048;-78
2022/08/03 02:36:27;;;;;;;0.35;0.30;;;14.80;99.90;;;;;;4978203;28;20459;-77
2022/08/03 02:38:56;;;;;;;0.40;0.40;;;14.70;99.90;;;;;;4995921;28;20065;-77
2022/08/03 02:41:43;;;;;;;2.10;0.60;;;14.80;99.90;;;;;;4996040;28;20476;-79
2022/08/03 02:44:11;;;;;;;0.93;0.75;;;14.80;99.90;;;;;;4996064;28;20042;-79
2022/08/03 02:46:41;;;;;;;2.08;0.55;;;14.70;99.90;;;;;;4978499;28;20054;-80
2022/08/03 02:49:09;;;;;;;1.83;0.88;;;14.70;99.90;;;;;;4996961;28;20072;-77
2022/08/03 02:51:36;;;;;;;0.77;0.77;;;14.70;99.90;;;;;;4981109;28;20073;-77
2022/08/03 02:54:03;;;;;;;0.50;0.50;;;14.70;99.90;;;;;;4982229;28;20046;-77
2022/08/03 02:56:30;;;;;;;1.10;1.10;;;14.80;99.90;;;;;;4981167;28;20034;-77
2022/08/03 02:58:58;;;;;;;2.60;1.83;;;14.70;99.90;;;;;;4981011;28;20015;-76
2022/08/03 03:01:25;;;;;;;0.55;0.55;;;14.80;99.90;;;;;;4979344;28;20361;-76
2022/08/03 03:03:54;;;;;;;2.45;0.50;;;14.70;99.90;;;;;;4978761;28;20018;-77
2022/08/03 03:06:21;;;;;;;5.93;0.73;;;14.60;99.90;;;;;;4996212;28;20034;-77
2022/08/03 03:08:47;;;;;;;0.30;0.30;;;14.60;99.90;;;;;;4996793;28;20027;-77
2022/08/03 03:11:16;;;;;;;1.05;0.50;;;14.60;99.90;;;;;;4996416;28;20109;-77
2022/08/03 03:13:43;;;;;;;0.35;0.30;;;14.60;99.90;;;;;;4977964;28;20154;-78
2022/08/03 03:16:12;;;;;;;0.32;0.32;;;14.50;99.90;;;;;;4977849;28;20034;-77
2022/08/03 03:18:39;;;;;;;0.47;0.40;;;14.60;99.90;;;;;;4978046;28;20483;-80
2022/08/03 03:21:07;;;;;;;0.75;0.75;;;14.50;99.90;;;;;;4995213;28;20034;-78
2022/08/03 03:23:37;;;;;;;0.65;0.65;;;14.40;99.90;;;;;;4981033;28;20022;-77
2022/08/03 03:26:03;;;;;;;1.75;0.85;;;;;;;;;;4981687;28;20029;-77
2022/08/03 03:28:30;;;;;;;0.45;0.45;;;14.50;99.90;;;;;;4980908;28;20030;-78
2022/08/03 03:30:57;;;;;;;0.65;0.65;;;14.60;99.90;;;;;;4980452;28;20022;-77
2022/08/03 03:33:23;;;;;;;0.50;0.50;;;14.60;99.90;;;;;;4997209;28;20022;-77
2022/08/03 03:35:50;;;;;;;1.95;0.70;;;14.50;99.90;;;;;;4978069;28;20027;-78
2022/08/03 03:38:16;;;;;;;0.45;0.38;;;14.40;99.90;;;;;;4980917;28;20110;-77
2022/08/03 03:40:42;;;;;;;0.70;0.70;;;14.40;99.90;;;;;;4994839;28;20050;-82
2022/08/03 03:43:10;;;;;;;1.15;0.90;;;14.30;99.90;;;;;;4996286;28;20041;-78
2022/08/03 03:45:36;;;;;;;2.67;1.23;;;14.20;99.90;;;;;;4984483;28;20026;-76
2022/08/03 03:48:06;;;;;;;0.73;0.73;;;14.20;99.90;;;;;;4983270;28;20022;-77
2022/08/03 03:50:33;;;;;;;1.45;1.10;;;14.10;99.90;;;;;;4981772;28;20022;-78
2022/08/03 03:52:59;;;;;;;0.40;0.40;;;14.10;99.90;;;;;;4985370;28;20072;-77
2022/08/03 03:55:25;;;;;;;0.95;0.57;;;14.00;99.90;;;;;;5000378;28;20054;-77
2022/08/03 03:57:50;;;;;;;0.60;0.60;;;14.00;99.90;;;;;;5000133;28;20085;-76
2022/08/03 04:00:18;;;;;;;0.70;0.70;;;14.10;99.90;;;;;;4986887;28;20068;-77
2022/08/03 04:02:44;;;;;;;0.40;0.40;;;14.10;99.90;;;;;;4993437;28;20026;-77
2022/08/03 04:11:04;;;;;;;0.85;0.75;;;14.10;99.90;;;;;;5008790;28;20250;-77
2022/08/03 04:13:37;;;;;;;0.85;0.85;;;14.00;99.90;;;;;;4989573;28;20030;-77
2022/08/03 04:16:05;;;;;;;0.95;0.90;;;14.00;99.90;;;;;;4988597;28;20053;-78
2022/08/03 04:18:34;;;;;;;0.30;0.30;;;14.00;99.90;;;;;;4990350;28;20026;-78
2022/08/03 04:21:05;;;;;;;2.22;1.52;;;14.00;99.90;;;;;;4991665;28;20069;-78
2022/08/03 04:23:35;;;;;;;2.53;0.68;;;13.90;99.90;;;;;;4991527;28;20022;-77
2022/08/03 04:26:02;;;;;;;1.30;0.50;;;13.90;99.90;;;;;;4995255;28;20030;-77
2022/08/03 04:28:31;;;;;;;1.35;1.02;;;13.90;99.90;;;;;;4990495;28;20353;-78
2022/08/03 04:31:01;;;;;;;1.05;0.75;;;14.00;99.90;;;;;;4991744;28;20072;-76
2022/08/03 04:33:29;;;;;;;0.50;0.50;;;14.00;99.90;;;;;;5006598;28;20026;-83
2022/08/03 04:35:58;;;;;;;0.65;0.65;;;14.10;99.90;;;;;;5005704;28;20030;-80
2022/08/03 04:38:24;;;;;;;1.40;1.35;;;14.10;99.90;;;;;;4993480;28;20032;-77
2022/08/03 04:40:53;;;;;;;4.00;1.05;;;14.30;99.90;;;;;;4993050;28;20031;-78
2022/08/03 04:43:21;;;;;;;0.70;0.70;;;14.20;99.90;;;;;;4991649;28;20029;-77
2022/08/03 04:45:48;;;;;;;1.77;1.67;;;14.40;99.90;;;;;;5009727;28;20207;-78
2022/08/03 04:48:14;;;;;;;1.25;0.70;;;14.40;99.90;;;;;;5009998;28;20029;-77
2022/08/03 04:50:41;;;;;;;0.73;0.73;;;14.50;99.90;;;;;;4987320;28;20033;-77
2022/08/03 04:53:07;;;;;;;0.93;0.70;;;14.60;99.90;;;;;;5003547;28;20026;-77
2022/08/03 04:55:34;;;;;;;0.50;0.50;;;14.60;99.90;;;;;;4985619;28;20038;-78
2022/08/03 04:58:01;;;;;;;0.98;0.98;;;14.60;99.90;;;;;;4986759;28;20042;-78
2022/08/03 05:00:28;;;;;;;0.80;0.80;;;14.70;99.90;;;;;;4989009;28;20329;-79
2022/08/03 05:02:54;;;;;;;1.17;1.08;;;14.70;99.90;;;;;;4989126;28;20026;-77
2022/08/03 05:05:20;;;;;;;0.40;0.40;;;14.70;99.90;;;;;;4989407;28;20211;-77
2022/08/03 05:07:46;;;;;;;1.95;1.77;;;14.70;99.90;;;;;;5007354;28;20065;-78
2022/08/03 05:10:12;;;;;;;1.17;0.80;;;14.70;99.90;;;;;;5007587;28;20048;-80
2022/08/03 05:12:39;;;;;;;0.98;0.40;;;14.80;99.90;;;;;;5006687;28;20026;-78
2022/08/03 05:15:05;;;;;;;0.75;0.65;;;14.90;99.90;;;;;;4989235;28;20195;-85
2022/08/03 05:17:32;;;;;;;1.50;0.60;;;15.00;99.90;;;;;;5006032;28;20034;-77
2022/08/03 05:19:59;;;;;;;0.30;0.30;;;15.10;99.90;;;;;;4988932;28;20233;-80
2022/08/03 05:22:25;;;;;;;2.25;1.02;;;;;;;;;;4989070;28;20033;-81
2022/08/03 05:24:51;;;;;;;0.30;0.30;;;15.40;99.90;;;;;;5006153;28;20065;-82
2022/08/03 05:27:18;;;;;;;0.68;0.68;;;15.40;99.90;;;;;;4989176;28;20019;-81
2022/08/03 05:29:47;;;;;;;0.47;0.47;;;15.60;99.90;;;;;;5006423;28;20386;-78
2022/08/03 05:32:13;;;;;;;;;;;15.60;99.90;;;;;;4989274;28;20026;-78
2022/08/03 05:34:39;;;;;;;0.32;0.32;;;15.70;99.90;;;;;;5005758;28;19902;-79
2022/08/03 05:37:06;;;;;;;0.77;0.77;;;15.90;99.90;;;;;;4989194;28;20158;-78
2022/08/03 05:39:32;;;;;;;0.40;0.40;;;16.00;99.90;;;;;;4988616;28;20249;-81
2022/08/03 05:41:58;;;;;;;0.32;0.32;;;16.10;99.90;;;;;;4989172;28;20034;-79
2022/08/03 05:44:24;;;;;;;0.57;0.57;;;16.20;99.90;;;;;;4988475;28;20085;-83
2022/08/03 05:46:50;;;;;;;0.45;0.45;;;16.40;99.90;;;;;;4988445;28;20030;-80
2022/08/03 05:49:16;;;;;;;0.45;0.38;;;16.50;99.90;;;;;;4988424;28;20247;-81
2022/08/03 05:51:42;;;;;;;0.30;0.30;;;16.70;99.90;;;;;;5006318;28;20026;-83
2022/08/03 05:54:08;;;;;;;0.47;0.47;;;16.80;99.90;;;;;;4988599;28;20330;-78
2022/08/03 05:56:33;;;;;;;0.73;0.50;;;16.90;99.90;;;;;;5006014;28;20073;-79
2022/08/03 05:58:59;;;;;;;0.85;0.63;;;17.10;99.90;;;;;;4988385;28;20030;-78
2022/08/03 06:01:25;;;;;;;0.85;0.85;;;17.20;99.90;;;;;;4988429;28;20033;-82
2022/08/03 06:03:51;;;;;;;0.65;0.40;;;17.30;99.90;;;;;;5002282;28;20018;-78
2022/08/03 06:06:17;;;;;;;0.68;0.50;;;17.50;99.90;;;;;;5005410;28;20034;-78
2022/08/03 06:08:44;;;;;;;0.77;0.77;;;17.60;99.90;;;;;;5005054;28;20121;-78
2022/08/03 06:11:10;;;;;;;0.75;0.43;;;17.80;99.90;;;;;;5005542;28;20084;-78
2022/08/03 06:13:36;;;;;;;0.88;0.50;;;17.90;99.90;;;;;;5004771;28;20096;-78
2022/08/03 06:16:02;;;;;;;0.40;0.38;;;18.10;99.90;;;;;;4987404;28;20081;-79
2022/08/03 06:18:28;;;;;;;0.30;0.30;;;;;;;;;;5005063;28;20015;-78
2022/08/03 06:20:53;;;;;;;0.30;0.30;;;18.40;99.90;;;;;;5004957;28;20026;-78
2022/08/03 06:23:19;;;;;;;0.30;0.30;;;18.60;99.90;;;;;;5004748;28;20386;-77
2022/08/03 06:25:45;;;;;;;1.35;0.68;;;18.70;99.90;;;;;;4987474;28;20045;-78
2022/08/03 06:28:13;;;;;;;0.50;0.50;;;18.80;99.90;;;;;;5005115;28;20018;-78
2022/08/03 06:30:39;;;;;;;0.57;0.32;;;19.10;99.90;;;;;;4987396;28;20322;-78
2022/08/03 06:33:05;;;;;;;1.08;0.32;;;19.30;99.90;;;;;;4987514;28;20262;-78
2022/08/03 06:35:31;;;;;;;0.28;0.28;;;19.50;99.90;;;;;;5004889;28;20326;-79
2022/08/03 06:37:57;;;;;;;0.30;0.30;;;19.80;99.90;;;;;;4987334;28;20246;-78
2022/08/03 06:40:28;;;;;;;0.65;0.65;;;19.90;99.90;;;;;;5004827;28;20348;-78
2022/08/03 06:42:54;;;;;;;0.13;0.13;;;20.10;99.90;;;;;;4987289;28;20026;-78
2022/08/03 06:45:21;;;;;;;0.20;0.20;;;20.10;99.90;;;;;;4986716;28;20020;-77
2022/08/03 06:47:47;;;;;;;0.43;0.43;;;20.20;99.90;;;;;;4986761;28;20054;-79
2022/08/03 06:50:12;;;;;;;0.32;0.32;;;20.20;99.90;;;;;;5004666;28;20019;-79
2022/08/03 06:52:38;;;;;;;0.30;0.30;;;20.20;99.90;;;;;;5004063;28;20030;-79
2022/08/03 06:55:04;;;;;;;2.00;0.30;;;20.30;99.90;;;;;;4986886;28;20033;-79
2022/08/03 06:57:30;;;;;;;0.05;0.05;;;20.40;99.90;;;;;;5003003;28;20038;-78
2022/08/03 07:00:00;;;;;;;0.30;0.25;;;20.60;99.90;;;;;;4987127;28;20022;-78
2022/08/03 07:02:27;;;;;;;0.65;0.65;;;20.70;99.90;;;;;;5004609;28;20030;-78
2022/08/03 07:04:53;;;;;;;0.40;0.40;;;20.90;99.90;;;;;;5002556;28;20018;-78
2022/08/03 07:07:19;;;;;;;0.25;0.25;;;21.50;99.90;;;;;;5004050;28;20045;-78
2022/08/03 07:09:46;;;;;;;0.40;0.35;;;23.80;99.90;;;;;;4986576;28;20025;-78
2022/08/03 07:12:12;;;;;;;0.30;0.30;;;25.10;99.90;;;;;;5004602;28;20347;-78
2022/08/03 07:14:38;;;;;;;0.20;0.20;;;26.80;91.10;;;;;;4986437;28;20103;-78
2022/08/03 07:17:04;;;;;;;0.10;0.10;;;28.30;74.40;;;;;;5001691;28;20037;-79
2022/08/03 07:19:29;;;;;;;0.30;0.30;;;29.10;67.20;;;;;;4980777;28;20397;-77
2022/08/03 07:21:55;;;;;;;0.50;0.43;;;29.70;63.70;;;;;;5002627;28;20030;-78
2022/08/03 07:24:24;;;;;;;0.35;0.30;;;29.90;62.80;;;;;;5003047;28;20022;-78
2022/08/03 07:26:49;;;;;;;0.68;0.40;;;30.00;61.90;;;;;;5004228;28;20215;-76
2022/08/03 07:29:21;;;;;;;0.10;0.10;;;30.30;61.60;;;;;;5004422;28;20068;-77
2022/08/03 07:31:47;;;;;;;0.30;0.30;;;30.20;60.60;;;;;;5003647;28;20030;-82
2022/08/03 07:34:13;;;;;;;0.30;0.30;;;30.80;59.20;;;;;;5004138;28;20081;-79
2022/08/03 07:36:39;;;;;;;0.22;0.22;;;30.40;58.50;;;;;;5003356;28;20050;-78
2022/08/03 07:39:05;;;;;;;0.17;0.17;;;30.40;58.80;;;;;;4985860;28;20045;-79
2022/08/03 07:41:40;;;;;;;0.20;0.20;;;31.00;57.80;;;;;;4986683;28;20315;-84
2022/08/03 07:44:05;;;;;;;0.20;0.20;;;31.30;57.20;;;;;;5004050;28;20322;-78
2022/08/03 07:46:32;;;;;;;0.20;0.20;;;31.00;57.10;;;;;;4985129;28;20061;-82
2022/08/03 07:48:57;;;;;;;6.38;0.65;;;31.40;56.50;;;;;;5002698;28;20018;-78
2022/08/03 07:51:23;;;;;;;0.75;0.43;;;30.90;56.90;;;;;;5003343;28;20029;-80
2022/08/03 07:53:49;;;;;;;3.80;0.50;;;31.50;56.80;;;;;;4985996;28;20373;-77
2022/08/03 07:56:15;;;;;;;0.10;0.10;;;32.20;54.80;;;;;;5003369;28;20266;-77
2022/08/03 07:58:41;;;;;;;0.75;0.60;;;31.20;55.40;;;;;;5003248;28;20033;-78
2022/08/03 08:01:07;;;;;;;0.40;0.40;;;30.90;56.20;;;;;;5003230;28;20030;-78
2022/08/03 08:03:33;;;;;;;0.40;0.20;;;31.30;56.90;;;;;;5002184;28;20014;-77
2022/08/03 08:05:59;;;;;;;0.15;0.15;;;31.50;56.30;;;;;;4985942;28;20101;-76
2022/08/03 08:08:24;;;;;;;0.17;0.17;;;32.00;55.40;;;;;;4985718;28;20026;-77
2022/08/03 08:10:50;;;;;;;2.85;1.02;;;32.50;54.40;;;;;;4986934;28;20033;-83
2022/08/03 08:13:16;;;;;;;24.40;1.20;;;33.00;54.00;;;;;;5004100;28;20014;-80
2022/08/03 08:15:42;;;;;;;0.20;0.10;;;32.40;54.70;;;;;;5003168;28;20038;-83
2022/08/03 08:18:07;;;;;;;0.22;0.22;;;32.20;54.90;;;;;;5004453;28;20019;-78
2022/08/03 08:20:36;;;;;;;0.40;0.40;;;32.50;55.30;;;;;;5003723;28;20029;-77
2022/08/03 08:23:05;;;;;;;0.30;0.30;;;32.10;54.50;;;;;;5001205;28;20337;-86
2022/08/03 08:25:31;;;;;;;0.10;0.10;;;31.60;55.50;;;;;;5005498;28;20026;-75
2022/08/03 08:28:01;;;;;;;0.30;0.30;;;31.10;57.00;;;;;;5004471;28;20022;-81
2022/08/03 08:30:28;;;;;;;0.30;0.30;;;28.90;55.30;;;;;;4998462;28;20026;-78
2022/08/03 08:32:53;;;;;;;0.20;0.20;;;31.30;57.10;;;;;;5002290;28;20014;-82
2022/08/03 08:35:19;;;;;;;0.17;0.17;;;31.20;57.30;;;;;;5002715;28;20057;-82
2022/08/03 08:37:45;;;;;;;0.17;0.17;;;31.60;57.70;;;;;;5002390;28;20054;-77
2022/08/03 08:40:12;;;;;;;0.10;0.10;;;32.20;56.30;;;;;;5003730;28;20089;-87
2022/08/03 08:42:40;;;;;;;0.75;0.30;;;33.10;54.80;;;;;;5000271;28;20049;-77
2022/08/03 08:45:07;;;;;;;0.55;0.55;;;33.00;54.60;;;;;;5003836;28;20082;-80
2022/08/03 08:47:37;;;;;;;0.20;0.20;;;33.00;54.10;;;;;;5002411;28;20033;-83
2022/08/03 08:50:04;;;;;;;0.25;0.25;;;33.10;54.70;;;;;;4983812;28;20254;-78
2022/08/03 08:52:32;;;;;;;0.25;0.15;;;33.40;54.20;;;;;;5003170;28;20018;-79
2022/08/03 08:55:02;;;;;;;0.27;0.27;;;33.60;52.60;;;;;;4983536;28;20250;-76
2022/08/03 08:57:43;;;;;;;0.10;0.10;;;33.60;53.40;;;;;;5001406;28;20031;-76
2022/08/03 09:00:13;;;;;;;0.43;0.43;;;33.60;54.10;;;;;;4983850;28;20093;-81
2022/08/03 09:02:43;;;;;;;0.15;0.15;;;33.30;52.90;;;;;;4984279;28;20030;-78
2022/08/03 09:05:15;;;;;;;0.40;0.40;;;32.70;53.80;;;;;;4985357;28;20068;-79
2022/08/03 09:07:42;;;;;;;7.93;0.68;;;32.70;54.70;;;;;;5003049;28;20085;-82
2022/08/03 09:10:09;;;;;;;0.22;0.22;;;32.90;53.50;;;;;;5003010;28;20102;-85
2022/08/03 09:12:42;;;;;;;0.32;0.32;;;32.80;53.80;;;;;;5002888;28;20041;-84
2022/08/03 09:15:25;;;;;;;8.32;1.30;;;32.90;54.10;;;;;;5002846;28;20018;-86
2022/08/03 09:17:53;;;;;;;11.07;0.93;;;32.00;55.20;;;;;;5002530;28;20180;-76
2022/08/03 09:20:20;;;;;;;0.17;0.17;;;32.50;55.40;;;;;;5002237;28;20041;-76
2022/08/03 09:22:58;;;;;;;0.30;0.20;;;33.20;54.70;;;;;;5001920;28;20098;-75
2022/08/03 09:25:31;;;;;;;5.22;0.90;;;32.90;55.50;;;;;;5002335;28;20056;-78
2022/08/03 09:28:12;;;;;;;0.40;0.40;;;33.10;54.80;;;;;;5002425;28;20306;-79
2022/08/03 09:30:39;;;;;;;0.40;0.40;;;33.10;54.00;;;;;;5002227;28;20057;-77
2022/08/03 09:33:10;;;;;;;1.10;0.52;;;33.20;54.20;;;;;;5002733;28;20023;-76
2022/08/03 09:35:43;;;;;;;0.50;0.50;;;32.60;55.10;;;;;;5002448;28;20061;-77
2022/08/03 09:38:23;;;;;;;0.43;0.43;;;32.20;56.10;;;;;;4984789;28;20050;-75
2022/08/03 09:40:49;;;;;;;0.82;0.10;;;32.10;56.60;;;;;;5002584;28;20053;-76
2022/08/03 09:43:15;;;;;;;0.10;0.10;;;32.40;55.10;;;;;;5002777;28;20311;-74
2022/08/03 09:45:43;;;;;;;0.73;0.45;;;32.60;55.20;;;;;;5005285;28;20053;-82
2022/08/03 09:48:21;;;;;;;0.40;0.40;;;33.00;54.60;;;;;;5005847;28;20042;-84
2022/08/03 09:50:48;;;;;;;;;;;33.10;52.40;;;;;;4988662;28;20057;-82
2022/08/03 09:53:14;;;;;;;2.08;0.20;;;32.90;53.80;;;;;;5005768;28;20244;-75
2022/08/03 09:55:50;;;;;;;0.55;0.55;;;32.90;52.70;;;;;;4988706;28;20045;-77
2022/08/03 09:58:15;;;;;;;0.20;0.20;;;32.70;52.90;;;;;;4988463;28;20022;-78
2022/08/03 10:00:53;;;;;;;1.02;0.20;;;32.50;53.40;;;;;;5005640;28;20061;-73
2022/08/03 10:03:19;;;;;;;0.33;0.33;;;32.20;54.30;;;;;;5006610;28;20048;-77
2022/08/03 10:05:45;;;;;;;0.77;0.77;;;32.50;53.10;;;;;;5005649;28;20458;-77
2022/08/03 10:08:15;;;;;;;0.45;0.45;;;32.60;54.20;;;;;;5005568;28;20057;-76
2022/08/03 10:10:43;;;;;;;0.10;0.10;;;32.90;54.00;;;;;;5005907;28;20049;-75
2022/08/03 10:13:12;;;;;;;0.10;0.10;;;32.50;54.20;;;;;;5005598;28;20030;-75
2022/08/03 10:15:39;;;;;;;0.20;0.20;;;32.10;53.00;;;;;;4988099;28;20037;-81
2022/08/03 10:18:05;;;;;;;0.63;0.63;;;32.30;54.50;;;;;;5005305;28;20077;-79
2022/08/03 10:20:35;;;;;;;0.30;0.30;;;32.10;54.40;;;;;;5005682;28;20026;-74
2022/08/03 10:23:02;;;;;;;0.65;0.25;;;32.10;54.20;;;;;;5005249;28;20026;-77
2022/08/03 10:25:30;;;;;;;0.30;0.30;;;31.90;53.70;;;;;;5005562;28;20019;-74
2022/08/03 10:27:57;;;;;;;0.68;0.68;;;32.10;54.10;;;;;;4987975;28;20226;-82
2022/08/03 10:30:26;;;;;;;0.35;0.35;;;32.10;53.40;;;;;;5005757;28;20022;-74
2022/08/03 10:32:57;;;;;;;0.55;0.55;;;32.40;52.40;;;;;;5004985;28;20026;-74
2022/08/03 10:35:24;;;;;;;0.40;0.28;;;32.10;52.70;;;;;;5005364;28;20037;-75
2022/08/03 10:38:18;;;;;;;0.20;0.20;;;32.50;54.10;;;;;;5004555;28;20058;-75
2022/08/03 10:40:44;;;;;;;0.10;0.10;;;32.60;51.70;;;;;;4985810;28;20035;-75
2022/08/03 10:43:21;;;;;;;0.20;0.20;;;32.60;52.00;;;;;;5005222;28;20026;-74
2022/08/03 10:45:48;;;;;;;0.10;0.10;;;32.60;53.10;;;;;;5004512;28;20026;-74
2022/08/03 10:48:15;;;;;;;1.45;0.20;;;33.30;50.50;;;;;;4987105;28;20026;-75
2022/08/03 10:50:42;;;;;;;0.40;0.40;;;33.50;50.00;;;;;;5004486;28;20310;-76
2022/08/03 10:53:08;;;;;;;0.40;0.30;;;33.60;51.10;;;;;;5004645;28;20026;-75
2022/08/03 10:58:46;;;;;;;0.15;0.15;;;34.00;49.30;;;;;;5005123;28;20042;-75
2022/08/03 11:01:12;;;;;;;1.65;0.77;;;34.60;50.10;;;;;;5004668;28;20028;-79
2022/08/03 11:03:53;;;;;;;0.40;0.20;;;35.10;48.30;;;;;;5004696;28;20027;-75
2022/08/03 11:06:20;;;;;;;0.40;0.28;;;34.60;48.50;;;;;;5004243;28;20026;-77
2022/08/03 11:08:47;;;;;;;0.63;0.20;;;34.70;48.80;;;;;;4986530;28;20121;-76
2022/08/03 11:11:16;;;;;;;0.70;0.70;;;34.90;48.30;;;;;;4986947;28;20275;-74
2022/08/03 11:14:08;;;;;;;0.03;0.03;;;34.90;47.30;;;;;;4987182;28;20025;-76
2022/08/03 11:16:35;;;;;;;0.20;0.20;;;35.00;47.90;;;;;;4997216;28;20042;-80
2022/08/03 11:19:03;;;;;;;0.40;0.40;;;35.20;47.90;;;;;;4986509;28;20041;-75
2022/08/03 11:21:47;;;;;;;0.30;0.30;;;35.50;45.70;;;;;;4986459;28;20222;-80
2022/08/03 11:24:35;;;;;;;0.30;0.20;;;35.50;44.60;;;;;;4985983;28;20235;-75
2022/08/03 11:27:30;;;;;;;0.05;0.05;;;35.90;45.20;;;;;;4985899;28;20180;-75
2022/08/03 11:30:29;;;;;;;0.30;0.30;;;36.20;45.10;;;;;;5003088;28;20141;-75
2022/08/03 11:33:27;;;;;;;0.03;0.03;;;36.50;45.80;;;;;;4983397;28;20330;-75
2022/08/03 11:36:01;;;;;;;0.03;0.03;;;37.10;44.90;;;;;;4976353;28;20044;-76
2022/08/03 11:38:27;;;;;;;0.90;0.75;;;37.80;43.60;;;;;;4973952;28;20046;-77
2022/08/03 11:40:53;;;;;;;0.15;0.15;;;37.80;42.00;;;;;;4979178;28;20048;-78
2022/08/03 11:43:22;;;;;;;0.55;0.20;;;37.60;41.40;;;;;;4979799;28;20033;-78
2022/08/03 11:45:58;;;;;;;2.95;0.65;;;36.80;42.60;;;;;;4980822;28;20023;-77
2022/08/03 11:48:32;;;;;;;0.30;0.30;;;36.40;43.70;;;;;;4977818;28;20115;-76
2022/08/03 11:51:01;;;;;;;0.57;0.30;;;36.70;43.60;;;;;;4973037;28;20477;-76
2022/08/03 11:53:27;;;;;;;0.32;0.32;;;36.80;43.20;;;;;;4975661;28;20038;-77
2022/08/03 11:55:57;;;;;;;0.25;0.10;;;36.90;43.90;;;;;;4972946;28;20029;-76
2022/08/03 11:58:23;;;;;;;0.20;0.20;;;36.80;42.90;;;;;;4973540;28;20058;-75
2022/08/03 12:00:50;;;;;;;0.30;0.15;;;36.40;42.70;;;;;;4973543;28;20061;-77
2022/08/03 12:03:22;;;;;;;0.98;0.30;;;36.70;42.00;;;;;;4973559;28;20377;-78
2022/08/03 12:05:51;;;;;;;0.10;0.10;;;37.50;42.30;;;;;;4974752;28;20027;-80
2022/08/03 12:08:35;;;;;;;0.30;0.30;;;38.30;41.10;;;;;;4979656;28;20110;-76
2022/08/03 12:11:05;;;;;;;0.70;0.22;;;38.80;40.40;;;;;;4980704;28;20027;-77
2022/08/03 12:13:46;;;;;;;0.40;0.40;;;38.20;40.60;;;;;;4980121;28;20097;-75
2022/08/03 12:16:22;;;;;;;1.98;1.25;;;37.60;41.70;;;;;;4980515;28;20022;-76
2022/08/03 12:19:15;;;;;;;0.82;0.43;;;37.80;42.20;;;;;;4982299;28;20027;-79
2022/08/03 12:21:48;;;;;;;0.47;0.22;;;37.20;40.80;;;;;;4977477;28;20035;-76
2022/08/03 12:24:20;;;;;;;0.10;0.10;;;37.40;41.90;;;;;;4974050;28;20037;-73
2022/08/03 12:26:48;;;;;;;0.77;0.30;;;37.60;42.50;;;;;;4974569;28;20105;-77
2022/08/03 12:29:24;;;;;;;0.10;0.10;;;37.70;42.30;;;;;;4974407;28;20050;-77
2022/08/03 12:31:50;;;;;;;0.15;0.15;;;37.50;41.10;;;;;;4974440;28;20030;-77
2022/08/03 12:34:16;;;;;;;0.10;0.10;;;37.50;41.20;;;;;;4974381;28;20105;-76
2022/08/03 12:36:52;;;;;;;0.10;0.10;;;37.10;41.70;;;;;;4979560;28;20153;-78
2022/08/03 12:39:23;;;;;;;0.10;0.10;;;37.00;42.00;;;;;;4994054;28;20030;-76
2022/08/03 12:41:53;;;;;;;0.10;0.10;;;36.80;42.70;;;;;;4999636;28;20045;-76
2022/08/03 12:44:32;;;;;;;0.30;0.30;;;37.00;42.60;;;;;;4993964;28;20546;-77
2022/08/03 12:46:59;;;;;;;0.10;0.10;;;37.20;44.00;;;;;;4979964;28;20030;-74
2022/08/03 12:49:25;;;;;;;0.65;0.10;;;37.80;40.60;;;;;;4979244;28;20167;-74
2022/08/03 12:51:51;;;;;;;0.10;0.10;;;37.90;41.30;;;;;;4977353;28;20037;-74
2022/08/03 12:54:21;;;;;;;0.20;0.20;;;37.80;40.80;;;;;;4982038;28;20030;-75
2022/08/03 12:57:22;;;;;;;0.10;0.10;;;38.30;41.70;;;;;;4977402;28;20084;-74
2022/08/03 12:59:48;;;;;;;0.50;0.50;;;38.80;40.10;;;;;;4996442;28;20030;-79
2022/08/03 13:02:16;;;;;;;0.20;0.20;;;38.60;40.00;;;;;;4976151;28;20109;-76
2022/08/03 13:04:44;;;;;;;0.00;0.00;;;38.50;40.10;;;;;;4995537;28;20030;-78
2022/08/03 13:07:10;;;;;;;1.70;0.20;;;38.80;41.00;;;;;;4984667;28;20455;-75
2022/08/03 13:10:11;;;;;;;0.32;0.32;;;38.50;40.20;;;;;;4984968;28;20280;-88